Time;durP1;ratioP1;P1;durP2;ratioP2;P2;SDS_P1;SDS_P2;PMS_P1;PMS_P2;Temp;Humidity;BMP_temperature;BMP_pressure;BME280_temperature;BME280_humidity;BME280_pressure;Samples;Min_cycle;Max_cycle;Signal;HPM_P1;HPM_P2
2024/02/02 00:00:01;;;;;;;23.43;9.10;;;7.20;92.50;;;;;;10228790;28;20215;-61
2024/02/02 00:05:06;;;;;;;24.10;9.03;;;7.20;92.80;;;;;;10217193;28;20231;-60
2024/02/02 00:10:11;;;;;;;28.43;8.67;;;7.20;92.70;;;;;;10220053;28;20301;-60
2024/02/02 00:15:15;;;;;;;18.60;8.20;;;7.20;92.60;;;;;;10217739;28;20287;-60
2024/02/02 00:20:19;;;;;;;21.23;8.43;;;7.20;93.00;;;;;;10232034;28;20734;-61
2024/02/02 00:25:24;;;;;;;22.60;8.03;;;7.20;92.70;;;;;;10229152;28;20305;-61
2024/02/02 00:30:33;;;;;;;20.87;7.37;;;7.20;92.80;;;;;;10215685;28;20280;-61
2024/02/02 00:35:37;;;;;;;24.37;6.93;;;7.20;92.80;;;;;;10219322;28;21682;-60
2024/02/02 00:40:42;;;;;;;18.40;6.83;;;7.20;92.80;;;;;;10213766;28;20502;-60
2024/02/02 00:45:46;;;;;;;19.53;6.23;;;7.20;93.00;;;;;;10222178;28;20231;-61
2024/02/02 00:50:49;;;;;;;24.10;7.10;;;7.20;93.10;;;;;;10223305;28;20691;-61
2024/02/02 00:55:55;;;;;;;19.70;7.30;;;7.20;93.00;;;;;;10212920;28;20232;-60
2024/02/02 01:00:58;;;;;;;21.60;7.33;;;7.20;93.00;;;;;;10218360;28;20678;-61
2024/02/02 01:06:03;;;;;;;17.53;8.00;;;7.20;92.90;;;;;;10219134;28;20639;-61
2024/02/02 01:11:08;;;;;;;18.13;7.63;;;7.20;92.90;;;;;;10211869;29;20885;-61
2024/02/02 01:16:12;;;;;;;19.73;7.37;;;7.20;93.20;;;;;;10212464;28;20224;-61
2024/02/02 01:21:16;;;;;;;21.93;8.20;;;7.20;93.50;;;;;;10220169;28;20200;-61
2024/02/02 01:26:21;;;;;;;24.50;9.60;;;7.20;93.10;;;;;;10214071;28;20222;-61
2024/02/02 01:31:26;;;;;;;21.77;10.20;;;7.20;93.00;;;;;;10214032;28;20230;-60
2024/02/02 01:36:30;;;;;;;25.90;9.80;;;7.20;93.00;;;;;;10212609;28;20685;-60
2024/02/02 01:41:35;;;;;;;25.93;9.83;;;7.10;93.30;;;;;;10217506;28;20307;-60
2024/02/02 01:46:38;;;;;;;24.37;11.13;;;7.10;93.10;;;;;;10208174;28;20235;-58
2024/02/02 01:51:42;;;;;;;22.17;9.30;;;7.10;93.50;;;;;;10305157;22;20806;-59
2024/02/02 01:56:48;;;;;;;23.17;8.93;;;7.10;93.30;;;;;;10437958;28;20211;-59
2024/02/02 02:01:51;;;;;;;26.23;9.73;;;7.10;92.90;;;;;;10440820;28;20228;-58
2024/02/02 02:06:56;;;;;;;31.80;9.80;;;7.10;92.90;;;;;;10444482;28;20238;-58
2024/02/02 02:12:02;;;;;;;21.77;8.60;;;7.10;93.00;;;;;;10433267;28;20270;-58
2024/02/02 02:17:06;;;;;;;24.63;9.60;;;7.10;92.90;;;;;;10438722;28;20325;-60
2024/02/02 02:22:11;;;;;;;25.37;8.40;;;7.10;92.90;;;;;;10442358;28;20227;-59
2024/02/02 02:27:15;;;;;;;18.53;8.10;;;7.10;92.40;;;;;;10440651;28;20297;-59
2024/02/02 02:32:19;;;;;;;21.77;8.33;;;7.10;92.60;;;;;;10431699;28;20342;-59
2024/02/02 02:37:24;;;;;;;19.23;8.10;;;7.10;92.20;;;;;;10433690;28;20200;-57
2024/02/02 02:42:28;;;;;;;24.90;7.70;;;7.10;92.20;;;;;;10446820;28;20231;-58
2024/02/02 02:47:32;;;;;;;17.87;7.50;;;7.20;92.30;;;;;;10442543;28;20222;-58
2024/02/02 02:52:38;;;;;;;21.63;7.40;;;7.20;92.20;;;;;;10434005;28;20292;-58
2024/02/02 02:57:41;;;;;;;20.47;7.27;;;7.20;92.00;;;;;;10434710;28;20269;-60
2024/02/02 03:02:45;;;;;;;22.13;7.70;;;7.20;91.80;;;;;;10448801;28;20746;-60
2024/02/02 03:07:51;;;;;;;20.77;6.43;;;7.20;92.00;;;;;;10431041;28;20212;-57
2024/02/02 03:12:54;;;;;;;19.80;6.70;;;7.20;92.00;;;;;;10432662;28;20219;-58
2024/02/02 03:17:58;;;;;;;18.60;6.63;;;7.10;91.90;;;;;;10432802;28;20200;-59
2024/02/02 03:23:04;;;;;;;19.27;6.77;;;7.10;91.80;;;;;;10441710;28;20685;-60
2024/02/02 03:28:07;;;;;;;18.80;7.47;;;7.10;92.00;;;;;;10454532;28;20219;-58
2024/02/02 03:33:11;;;;;;;16.57;6.73;;;7.10;92.20;;;;;;10437623;28;20587;-58
2024/02/02 03:38:16;;;;;;;20.47;7.60;;;7.10;92.20;;;;;;10448949;28;20218;-59
2024/02/02 03:43:20;;;;;;;21.77;7.03;;;7.20;92.70;;;;;;10445459;28;20250;-56
2024/02/02 03:48:24;;;;;;;21.03;7.70;;;7.20;92.40;;;;;;10440901;28;20239;-58
2024/02/02 03:53:29;;;;;;;14.67;7.13;;;7.20;92.40;;;;;;10442488;28;20686;-59
2024/02/02 03:58:33;;;;;;;18.97;7.43;;;7.20;92.30;;;;;;10445093;28;20196;-58
2024/02/02 04:03:36;;;;;;;17.23;7.13;;;7.20;92.50;;;;;;10447218;28;20307;-59
2024/02/02 04:08:42;;;;;;;20.00;7.13;;;7.20;92.70;;;;;;10446338;28;20243;-57
2024/02/02 04:13:47;;;;;;;17.33;7.73;;;7.20;92.40;;;;;;10443263;28;20570;-57
2024/02/02 04:18:50;;;;;;;19.53;8.33;;;7.20;92.70;;;;;;10440298;28;20199;-59
2024/02/02 04:23:55;;;;;;;23.23;8.23;;;7.20;93.00;;;;;;10440421;28;20214;-58
2024/02/02 04:28:59;;;;;;;22.27;8.03;;;7.20;93.40;;;;;;10447918;28;20227;-59
2024/02/02 04:34:03;;;;;;;18.40;7.27;;;7.30;93.30;;;;;;10444366;28;20289;-59
2024/02/02 04:39:09;;;;;;;22.77;8.27;;;7.30;93.50;;;;;;10446548;28;20208;-58
2024/02/02 04:44:13;;;;;;;21.17;7.37;;;7.30;93.20;;;;;;10446719;28;20636;-58
2024/02/02 04:49:16;;;;;;;21.00;7.53;;;7.30;93.60;;;;;;10445049;28;20223;-60
2024/02/02 04:54:22;;;;;;;21.47;7.47;;;7.30;93.70;;;;;;10442128;28;20269;-58
2024/02/02 04:59:26;;;;;;;20.80;6.57;;;7.30;94.00;;;;;;10435997;28;20260;-60
2024/02/02 05:04:29;;;;;;;20.47;6.70;;;7.30;93.70;;;;;;10445098;28;20317;-58
2024/02/02 05:09:34;;;;;;;20.97;7.00;;;7.30;94.20;;;;;;10442545;28;20239;-58
2024/02/02 05:14:38;;;;;;;17.43;7.33;;;7.40;94.50;;;;;;10435675;28;20245;-58
2024/02/02 05:19:42;;;;;;;19.17;6.93;;;7.40;94.20;;;;;;10434607;28;20290;-60
2024/02/02 05:24:49;;;;;;;17.03;6.03;;;7.30;93.60;;;;;;10438441;28;20219;-59
2024/02/02 05:29:53;;;;;;;21.10;6.20;;;7.30;93.90;;;;;;10450601;28;20567;-57
2024/02/02 05:34:56;;;;;;;15.63;6.13;;;7.30;93.90;;;;;;10441934;28;20208;-57
2024/02/02 05:40:03;;;;;;;16.03;6.17;;;7.30;94.30;;;;;;10446275;28;20242;-58
2024/02/02 05:45:07;;;;;;;17.80;5.57;;;7.30;93.90;;;;;;10440312;28;20703;-58
2024/02/02 05:50:11;;;;;;;15.93;5.27;;;7.30;94.10;;;;;;10436745;28;20267;-57
2024/02/02 05:55:16;;;;;;;20.37;5.83;;;7.30;93.60;;;;;;10442758;28;20200;-56
2024/02/02 06:00:20;;;;;;;13.80;5.30;;;7.30;93.60;;;;;;10439976;28;20220;-59
2024/02/02 06:05:23;;;;;;;15.50;5.40;;;7.30;93.20;;;;;;10442492;28;20610;-58
2024/02/02 06:10:29;;;;;;;14.63;5.10;;;7.30;93.30;;;;;;10447271;28;20255;-58
2024/02/02 06:15:32;;;;;;;16.87;5.77;;;7.20;93.10;;;;;;10450924;28;20768;-56
2024/02/02 06:20:36;;;;;;;14.47;4.70;;;7.20;93.10;;;;;;10433171;28;20215;-56
2024/02/02 06:25:42;;;;;;;16.93;5.77;;;7.20;92.70;;;;;;10436510;28;20195;-57
2024/02/02 06:30:48;;;;;;;16.00;5.40;;;7.20;92.30;;;;;;10441739;28;20308;-57
2024/02/02 06:35:51;;;;;;;13.33;5.43;;;7.30;92.50;;;;;;10434412;28;20238;-57
2024/02/02 06:40:57;;;;;;;14.53;5.50;;;7.30;92.30;;;;;;10445419;28;20227;-59
2024/02/02 06:46:00;;;;;;;17.48;5.72;;;7.30;91.80;;;;;;10444928;28;20440;-61
2024/02/02 06:51:04;;;;;;;13.73;5.13;;;7.30;91.70;;;;;;10440715;28;20255;-58
2024/02/02 06:56:32;;;;;;;19.50;5.47;;;7.40;91.50;;;;;;10440627;28;20231;-59
2024/02/02 07:01:36;;;;;;;13.77;5.70;;;7.40;91.60;;;;;;10448912;28;20649;-60
2024/02/02 07:06:40;;;;;;;19.57;5.87;;;7.40;91.40;;;;;;10448507;28;20246;-61
2024/02/02 07:12:05;;;;;;;15.53;5.53;;;7.40;91.50;;;;;;10453036;28;20638;-59
2024/02/02 07:17:23;;;;;;;19.70;6.00;;;7.40;91.50;;;;;;10444735;28;20245;-61
2024/02/02 07:22:36;;;;;;;15.70;5.20;;;7.40;91.50;;;;;;10445734;28;20623;-61
2024/02/02 07:27:54;;;;;;;15.90;5.13;;;7.40;91.20;;;;;;10452957;28;20385;-62
2024/02/02 07:32:58;;;;;;;19.53;5.27;;;7.40;91.00;;;;;;10441405;28;20247;-62
2024/02/02 07:38:05;;;;;;;15.67;6.67;;;7.40;91.10;;;;;;10452072;28;20198;-61
2024/02/02 07:43:10;;;;;;;16.27;5.53;;;7.30;90.80;;;;;;10447802;28;20216;-61
2024/02/02 07:48:13;;;;;;;13.80;4.67;;;7.30;90.50;;;;;;10451564;28;20207;-61
2024/02/02 07:53:17;;;;;;;15.37;5.33;;;7.30;90.40;;;;;;10449651;28;20231;-60
2024/02/02 07:58:22;;;;;;;16.43;5.10;;;7.20;90.30;;;;;;10454028;23;20703;-65
2024/02/02 08:03:26;;;;;;;17.93;5.13;;;7.30;90.30;;;;;;10439593;28;20265;-65
2024/02/02 08:08:32;;;;;;;13.57;4.67;;;7.30;90.10;;;;;;10442862;28;20219;-67
2024/02/02 08:13:37;;;;;;;13.33;4.53;;;7.30;90.30;;;;;;10440101;28;20277;-66
2024/02/02 08:18:42;;;;;;;15.00;5.17;;;7.30;90.70;;;;;;10441756;28;20196;-66
2024/02/02 08:23:46;;;;;;;15.00;4.90;;;7.30;90.40;;;;;;10441757;28;20195;-66
2024/02/02 08:28:51;;;;;;;13.83;4.50;;;7.40;90.20;;;;;;10447300;28;20208;-66
2024/02/02 08:33:58;;;;;;;16.10;4.37;;;7.40;90.00;;;;;;10447778;28;20252;-67
2024/02/02 08:39:02;;;;;;;16.20;4.90;;;7.40;89.90;;;;;;10434782;28;20211;-66
2024/02/02 08:44:17;;;;;;;14.83;4.77;;;7.40;90.00;;;;;;10449778;28;20265;-66
2024/02/02 08:49:43;;;;;;;12.30;4.97;;;7.50;90.10;;;;;;10445668;28;20206;-65
2024/02/02 08:54:48;;;;;;;13.17;4.60;;;7.50;90.00;;;;;;10448016;28;20272;-65
2024/02/02 08:59:53;;;;;;;15.40;4.87;;;7.50;89.90;;;;;;10448942;28;20585;-64
2024/02/02 09:05:06;;;;;;;16.57;5.13;;;7.50;89.70;;;;;;10447780;28;20563;-66
2024/02/02 09:10:44;;;;;;;16.30;5.40;;;7.60;89.80;;;;;;10444182;28;20776;-65
2024/02/02 09:15:49;;;;;;;15.13;5.13;;;7.60;89.20;;;;;;10444997;28;20965;-66
2024/02/02 09:20:53;;;;;;;18.70;5.17;;;7.70;89.60;;;;;;10439329;28;20203;-65
2024/02/02 09:25:57;;;;;;;17.90;5.13;;;7.70;89.50;;;;;;10438441;28;20224;-65
2024/02/02 09:31:04;;;;;;;13.73;5.47;;;7.80;90.00;;;;;;10451668;28;20223;-65
2024/02/02 09:36:09;;;;;;;11.03;5.03;;;7.80;89.60;;;;;;10447547;28;20273;-66
2024/02/02 09:41:37;;;;;;;11.37;4.90;;;7.90;89.70;;;;;;10441068;28;20195;-65
2024/02/02 09:46:52;;;;;;;13.73;5.47;;;7.90;89.80;;;;;;10444352;28;20219;-65
2024/02/02 09:52:15;;;;;;;17.13;5.63;;;8.00;89.80;;;;;;10443718;28;20219;-64
2024/02/02 09:57:26;;;;;;;12.60;4.73;;;8.00;89.70;;;;;;10439364;28;20235;-66
2024/02/02 10:02:53;;;;;;;12.07;5.00;;;8.10;90.20;;;;;;10445974;28;20196;-66
2024/02/02 10:08:14;;;;;;;16.23;5.40;;;8.10;89.80;;;;;;10446562;28;20222;-67
2024/02/02 10:13:33;;;;;;;19.73;5.80;;;8.10;89.50;;;;;;10439186;28;20278;-66
2024/02/02 10:18:51;;;;;;;12.47;5.17;;;8.20;89.70;;;;;;10446193;28;20223;-66
2024/02/02 10:24:17;;;;;;;19.30;5.93;;;8.20;89.60;;;;;;10452421;28;20198;-65
2024/02/02 10:29:31;;;;;;;17.20;5.70;;;8.30;90.00;;;;;;10443104;28;20261;-65
2024/02/02 10:34:50;;;;;;;17.07;5.57;;;8.30;90.00;;;;;;10446423;28;20296;-65
2024/02/02 10:40:06;;;;;;;15.63;5.67;;;8.30;89.90;;;;;;10441256;28;20233;-66
2024/02/02 10:45:19;;;;;;;15.03;5.27;;;8.30;89.80;;;;;;10446788;28;20271;-65
2024/02/02 10:50:37;;;;;;;15.00;5.33;;;8.40;89.80;;;;;;10434530;28;20233;-65
2024/02/02 10:56:05;;;;;;;15.13;5.57;;;8.40;90.00;;;;;;10445483;28;20227;-66
2024/02/02 11:01:15;;;;;;;16.03;5.53;;;8.50;90.00;;;;;;10448896;28;20610;-65
2024/02/02 11:06:29;;;;;;;17.67;5.90;;;8.60;89.80;;;;;;10442347;28;20285;-65
2024/02/02 11:11:40;;;;;;;17.93;6.43;;;8.80;90.00;;;;;;10450844;28;20222;-67
2024/02/02 11:16:58;;;;;;;14.00;6.03;;;8.80;90.00;;;;;;10451543;28;20231;-66
2024/02/02 11:22:23;;;;;;;22.00;6.00;;;9.00;90.00;;;;;;10443629;28;20261;-65
2024/02/02 11:27:34;;;;;;;13.53;5.97;;;9.00;90.00;;;;;;10441439;28;20710;-66
2024/02/02 11:32:59;;;;;;;16.90;6.37;;;9.00;89.90;;;;;;10441672;28;20273;-66
2024/02/02 11:38:14;;;;;;;15.07;7.30;;;9.00;90.00;;;;;;10448513;28;20254;-66
2024/02/02 11:43:18;;;;;;;18.83;7.60;;;9.10;90.00;;;;;;10444597;28;20266;-63
2024/02/02 11:48:31;;;;;;;15.70;7.40;;;9.20;90.10;;;;;;10450795;28;20227;-65
2024/02/02 11:53:41;;;;;;;17.33;7.53;;;9.20;90.10;;;;;;10445446;28;20220;-65
2024/02/02 11:58:46;;;;;;;13.70;7.30;;;9.30;90.10;;;;;;10452329;28;20261;-66
2024/02/02 12:04:06;;;;;;;19.40;7.90;;;9.30;90.00;;;;;;10452564;28;20562;-65
2024/02/02 12:09:15;;;;;;;11.53;6.20;;;9.40;90.10;;;;;;10448402;28;20249;-65
2024/02/02 12:14:26;;;;;;;16.13;6.93;;;9.40;90.00;;;;;;10449122;28;20227;-64
2024/02/02 12:19:30;;;;;;;15.83;6.10;;;9.40;90.20;;;;;;10442784;28;20565;-65
2024/02/02 12:24:35;;;;;;;14.97;6.17;;;9.60;90.30;;;;;;10443603;28;20220;-65
2024/02/02 12:29:39;;;;;;;11.90;5.63;;;9.50;90.20;;;;;;10443936;28;21420;-65
2024/02/02 12:34:43;;;;;;;15.23;6.37;;;9.60;90.40;;;;;;10435570;28;20296;-64
2024/02/02 12:39:49;;;;;;;13.33;5.33;;;9.80;90.30;;;;;;10432702;28;20225;-65
2024/02/02 12:44:53;;;;;;;15.93;6.20;;;10.10;89.50;;;;;;10446080;28;20220;-66
2024/02/02 12:49:57;;;;;;;13.13;5.90;;;10.20;89.30;;;;;;10437464;28;20200;-66
2024/02/02 12:55:03;;;;;;;12.93;5.47;;;10.30;88.90;;;;;;10441488;28;20224;-66
2024/02/02 13:00:13;;;;;;;14.02;5.70;;;10.40;89.00;;;;;;10442773;28;20720;-66
2024/02/02 13:05:18;;;;;;;16.10;6.65;;;10.30;89.40;;;;;;10442096;28;20281;-66
2024/02/02 13:10:37;;;;;;;13.00;6.65;;;10.30;89.80;;;;;;10447272;28;20203;-65
2024/02/02 13:15:41;;;;;;;15.60;7.07;;;10.20;90.00;;;;;;10443368;28;20686;-66
2024/02/02 13:20:49;;;;;;;15.10;5.90;;;10.20;90.20;;;;;;10447479;28;20195;-66
2024/02/02 13:25:58;;;;;;;15.02;6.30;;;10.20;90.20;;;;;;10446520;28;20223;-66
2024/02/02 13:31:04;;;;;;;13.80;6.57;;;10.10;90.20;;;;;;10437630;28;20262;-66
2024/02/02 13:36:10;;;;;;;12.77;6.32;;;10.10;90.50;;;;;;10437010;28;20223;-63
2024/02/02 13:41:20;;;;;;;13.18;6.47;;;10.10;90.60;;;;;;10438637;28;20204;-64
2024/02/02 13:46:24;;;;;;;17.17;7.88;;;10.10;90.70;;;;;;10440410;28;20220;-64
2024/02/02 13:51:31;;;;;;;16.10;7.18;;;10.10;91.00;;;;;;10440762;28;20258;-64
2024/02/02 13:56:36;;;;;;;15.20;7.07;;;10.10;91.00;;;;;;10453730;22;20224;-64
2024/02/02 14:01:40;;;;;;;17.63;8.10;;;10.10;91.10;;;;;;10421456;28;20258;-65
2024/02/02 14:06:44;;;;;;;16.27;9.03;;;10.00;91.30;;;;;;10429349;28;20216;-66
2024/02/02 14:11:51;;;;;;;14.50;8.77;;;9.90;92.10;;;;;;10448459;28;20219;-66
2024/02/02 14:17:01;;;;;;;15.00;9.73;;;9.90;92.20;;;;;;10446325;28;20219;-66
2024/02/02 14:22:06;;;;;;;17.48;10.02;;;9.80;92.30;;;;;;10438184;28;20227;-65
2024/02/02 14:27:12;;;;;;;18.13;9.57;;;9.80;92.50;;;;;;10427589;28;20220;-66
2024/02/02 14:32:16;;;;;;;16.50;9.20;;;9.70;92.70;;;;;;10441048;28;20267;-63
2024/02/02 14:37:19;;;;;;;14.70;9.30;;;9.70;92.80;;;;;;10441258;28;20285;-67
2024/02/02 14:42:25;;;;;;;17.50;10.80;;;9.60;92.80;;;;;;10431641;28;20196;-63
2024/02/02 14:47:31;;;;;;;16.97;11.57;;;9.70;93.10;;;;;;10444509;28;20224;-64
2024/02/02 14:52:35;;;;;;;16.03;10.70;;;9.60;93.20;;;;;;10439682;28;20239;-64
2024/02/02 14:57:41;;;;;;;16.37;9.77;;;9.50;93.30;;;;;;10440500;28;20281;-66
2024/02/02 15:02:44;;;;;;;15.70;9.73;;;9.50;93.50;;;;;;10439441;28;20196;-65
2024/02/02 15:07:48;;;;;;;15.87;11.03;;;9.40;93.80;;;;;;10438176;28;20211;-64
2024/02/02 15:12:53;;;;;;;19.53;11.90;;;9.30;93.70;;;;;;10435152;28;20223;-63
2024/02/02 15:17:57;;;;;;;18.83;12.00;;;9.30;94.00;;;;;;10447920;28;20273;-62
2024/02/02 15:23:01;;;;;;;21.33;15.97;;;9.30;94.30;;;;;;10440344;28;20200;-61
2024/02/02 15:28:06;;;;;;;22.25;16.30;;;9.30;94.60;;;;;;10448032;28;20220;-63
2024/02/02 15:33:10;;;;;;;21.23;15.60;;;9.30;94.90;;;;;;10450034;28;20208;-65
2024/02/02 15:38:14;;;;;;;20.37;15.53;;;9.20;95.00;;;;;;10445104;28;20277;-64
2024/02/02 15:43:19;;;;;;;20.27;15.37;;;9.20;95.10;;;;;;10454489;28;20200;-64
2024/02/02 15:48:23;;;;;;;25.77;15.93;;;9.20;95.40;;;;;;10448395;28;20224;-64
2024/02/02 15:53:27;;;;;;;24.87;17.10;;;9.10;95.90;;;;;;10441091;28;20263;-64
2024/02/02 15:58:32;;;;;;;22.83;17.13;;;9.10;95.80;;;;;;10441197;28;20784;-65
2024/02/02 16:03:36;;;;;;;23.23;17.40;;;9.10;95.90;;;;;;10453680;28;20254;-64
2024/02/02 16:08:40;;;;;;;26.47;18.37;;;9.10;96.10;;;;;;10448687;28;20281;-63
2024/02/02 16:13:45;;;;;;;27.63;18.07;;;9.10;96.20;;;;;;10446391;28;20242;-63
2024/02/02 16:18:49;;;;;;;26.90;18.90;;;9.10;96.20;;;;;;10445696;28;20219;-64
2024/02/02 16:23:53;;;;;;;29.80;20.67;;;9.10;96.60;;;;;;10450816;28;20195;-65
2024/02/02 16:28:58;;;;;;;28.30;21.87;;;9.20;96.70;;;;;;10439895;28;20281;-64
2024/02/02 16:34:02;;;;;;;33.38;28.60;;;9.20;97.20;;;;;;10445257;28;20505;-62
2024/02/02 16:39:09;;;;;;;30.42;23.48;;;9.40;98.10;;;;;;10448032;28;20273;-74
2024/02/02 16:44:15;;;;;;;30.53;23.30;;;9.40;97.40;;;;;;10453955;28;20662;-64
2024/02/02 16:49:19;;;;;;;35.87;25.00;;;9.40;97.90;;;;;;10441339;28;20732;-64
2024/02/02 16:54:23;;;;;;;35.83;25.20;;;9.30;97.70;;;;;;10452028;28;20223;-63
2024/02/02 16:59:28;;;;;;;34.03;24.73;;;9.30;98.30;;;;;;10452831;28;20274;-63
2024/02/02 17:04:32;;;;;;;34.93;25.10;;;9.30;97.80;;;;;;10443567;28;20223;-65
2024/02/02 17:09:38;;;;;;;32.93;23.77;;;9.30;97.90;;;;;;10448361;28;20645;-64
2024/02/02 17:14:43;;;;;;;33.37;24.70;;;9.30;97.70;;;;;;10446878;28;20254;-63
2024/02/02 17:19:47;;;;;;;41.53;25.07;;;9.30;97.90;;;;;;10452278;28;20576;-64
2024/02/02 17:24:51;;;;;;;35.17;25.77;;;9.30;98.60;;;;;;10448213;28;20219;-66
2024/02/02 17:29:56;;;;;;;34.17;23.87;;;9.30;98.40;;;;;;10444241;28;20222;-65
2024/02/02 17:35:00;;;;;;;34.80;24.57;;;9.30;98.30;;;;;;10441144;28;20246;-63
2024/02/02 17:40:05;;;;;;;39.10;26.60;;;9.30;98.70;;;;;;10438053;28;20200;-63
2024/02/02 17:45:10;;;;;;;36.93;27.27;;;9.30;98.90;;;;;;10441601;28;20256;-65
2024/02/02 17:50:14;;;;;;;35.55;25.85;;;9.30;98.60;;;;;;10437474;28;20274;-66
2024/02/02 17:55:20;;;;;;;34.67;26.13;;;9.30;99.50;;;;;;10451568;28;20231;-65
2024/02/02 18:00:25;;;;;;;37.57;27.23;;;9.30;99.30;;;;;;10441853;28;20207;-66
2024/02/02 18:05:29;;;;;;;35.53;26.93;;;9.30;99.60;;;;;;10436844;28;20257;-64
2024/02/02 18:10:32;;;;;;;36.50;27.00;;;9.30;99.30;;;;;;10440096;28;20663;-63
2024/02/02 18:15:37;;;;;;;40.00;28.60;;;9.30;99.40;;;;;;10441360;28;20231;-64
2024/02/02 18:20:42;;;;;;;39.67;28.67;;;9.30;99.50;;;;;;10432244;28;20210;-65
2024/02/02 18:25:46;;;;;;;41.90;30.93;;;9.30;99.60;;;;;;10446374;28;20238;-68
2024/02/02 18:30:51;;;;;;;44.00;31.80;;;9.30;99.60;;;;;;10442056;28;20681;-65
2024/02/02 18:35:55;;;;;;;40.77;30.13;;;9.30;99.90;;;;;;10440508;28;20222;-65
2024/02/02 18:40:58;;;;;;;45.53;31.90;;;9.30;99.90;;;;;;10436501;28;20713;-68
2024/02/02 18:46:03;;;;;;;46.63;33.40;;;9.30;99.90;;;;;;10440473;28;20602;-64
2024/02/02 18:51:15;;;;;;;44.63;31.80;;;9.30;99.90;;;;;;10437793;28;20245;-65
2024/02/02 18:56:19;;;;;;;45.43;33.23;;;9.30;99.90;;;;;;10443875;28;20227;-66
2024/02/02 19:01:26;;;;;;;48.27;34.87;;;9.30;99.90;;;;;;10452204;28;20203;-65
2024/02/02 19:06:30;;;;;;;47.40;33.57;;;9.30;99.90;;;;;;10438865;28;20220;-64
2024/02/02 19:11:34;;;;;;;43.80;33.60;;;9.30;99.90;;;;;;10452287;28;20670;-64
2024/02/02 19:16:40;;;;;;;45.93;34.83;;;9.40;99.90;;;;;;10442979;28;20752;-64
2024/02/02 19:21:44;;;;;;;47.43;33.57;;;9.40;99.90;;;;;;10452657;28;20619;-65
2024/02/02 19:26:49;;;;;;;43.93;32.33;;;9.40;99.90;;;;;;10429649;28;20219;-64
2024/02/02 19:31:57;;;;;;;45.77;32.20;;;9.40;99.90;;;;;;10460141;28;20199;-65
2024/02/02 19:37:01;;;;;;;44.83;33.73;;;9.50;99.90;;;;;;10456330;28;20228;-64
2024/02/02 19:42:05;;;;;;;46.50;32.83;;;9.50;99.90;;;;;;10443596;28;20226;-64
2024/02/02 19:47:12;;;;;;;45.47;33.87;;;9.50;99.90;;;;;;10450696;28;20216;-64
2024/02/02 19:52:16;;;;;;;47.50;35.63;;;9.50;99.90;;;;;;10446790;28;20258;-65
2024/02/02 19:57:20;;;;;;;49.10;35.63;;;9.50;99.90;;;;;;10472812;22;20243;-61
2024/02/02 20:02:28;;;;;;;47.50;34.57;;;9.50;99.90;;;;;;10468000;28;20284;-63
2024/02/02 20:07:32;;;;;;;45.53;34.37;;;9.60;99.90;;;;;;10483609;28;20227;-62
2024/02/02 20:12:36;;;;;;;43.85;33.15;;;9.60;99.90;;;;;;10488195;28;20207;-63
2024/02/02 20:17:41;;;;;;;47.53;34.37;;;9.50;99.90;;;;;;10488017;28;21602;-63
2024/02/02 20:22:45;;;;;;;46.73;34.83;;;9.50;99.90;;;;;;10490112;28;20214;-63
2024/02/02 20:27:48;;;;;;;47.70;34.07;;;9.50;99.90;;;;;;10492286;28;20632;-62
2024/02/02 20:32:53;;;;;;;48.97;35.67;;;9.50;99.90;;;;;;10492792;28;20256;-62
2024/02/02 20:37:57;;;;;;;47.60;34.13;;;9.50;99.90;;;;;;10485653;28;20250;-61
2024/02/02 20:43:01;;;;;;;53.93;36.93;;;9.50;99.90;;;;;;10477962;28;20255;-63
2024/02/02 20:48:07;;;;;;;49.87;35.07;;;9.50;99.90;;;;;;10489400;28;20839;-63
2024/02/02 20:53:10;;;;;;;51.30;37.03;;;9.50;99.90;;;;;;10489284;28;20223;-64
2024/02/02 20:58:14;;;;;;;53.27;37.83;;;9.50;99.90;;;;;;10476763;28;20299;-63
2024/02/02 21:03:22;;;;;;;52.17;36.53;;;9.50;99.90;;;;;;10475041;28;20661;-62
2024/02/02 21:08:26;;;;;;;54.30;36.17;;;9.50;99.90;;;;;;10467562;28;20251;-62
2024/02/02 21:13:30;;;;;;;51.63;36.70;;;9.50;99.90;;;;;;10470361;28;20725;-63
2024/02/02 21:18:35;;;;;;;49.10;35.50;;;9.50;99.90;;;;;;10476218;28;20254;-63
2024/02/02 21:23:44;;;;;;;49.07;34.13;;;9.40;99.90;;;;;;10469792;28;20289;-61
2024/02/02 21:28:48;;;;;;;54.17;36.67;;;9.50;99.90;;;;;;10475185;28;20246;-63
2024/02/02 21:33:55;;;;;;;51.33;35.00;;;9.50;99.90;;;;;;10482813;28;20223;-62
2024/02/02 21:38:59;;;;;;;45.57;33.43;;;9.50;99.90;;;;;;10481135;28;20254;-63
2024/02/02 21:44:03;;;;;;;49.53;34.87;;;9.50;99.90;;;;;;10482106;28;20195;-63
2024/02/02 21:49:10;;;;;;;45.83;33.13;;;9.50;99.90;;;;;;10480892;28;20242;-63
2024/02/02 21:54:14;;;;;;;50.83;35.07;;;9.50;99.90;;;;;;10487965;28;20260;-64
2024/02/02 21:59:17;;;;;;;47.07;33.33;;;9.50;99.90;;;;;;10480030;28;20321;-62
2024/02/02 22:04:22;;;;;;;45.73;33.67;;;9.50;99.90;;;;;;10477534;28;20753;-67
2024/02/02 22:09:26;;;;;;;43.77;32.13;;;9.50;99.90;;;;;;10477650;28;20206;-64
2024/02/02 22:14:32;;;;;;;44.47;33.57;;;9.50;99.90;;;;;;10477425;28;20235;-63
2024/02/02 22:19:38;;;;;;;45.70;33.73;;;9.60;99.90;;;;;;10475466;28;20266;-62
2024/02/02 22:24:42;;;;;;;44.60;32.77;;;9.60;99.90;;;;;;10482676;28;20526;-64
2024/02/02 22:29:46;;;;;;;44.00;33.60;;;9.60;99.90;;;;;;10471550;28;20633;-63
2024/02/02 22:34:51;;;;;;;47.33;34.27;;;9.60;99.90;;;;;;10476828;28;20565;-64
2024/02/02 22:39:55;;;;;;;45.00;33.77;;;9.60;99.90;;;;;;10478762;28;20284;-62
2024/02/02 22:44:58;;;;;;;44.73;34.90;;;9.70;99.90;;;;;;10475376;28;20207;-61
2024/02/02 22:50:04;;;;;;;44.97;34.17;;;9.70;99.90;;;;;;10475509;28;20570;-63
2024/02/02 22:55:10;;;;;;;47.77;36.27;;;9.70;99.90;;;;;;10483008;28;20225;-59
2024/02/02 23:00:19;;;;;;;46.83;36.20;;;9.70;99.90;;;;;;10473184;28;20690;-62
2024/02/02 23:05:24;;;;;;;47.37;35.67;;;9.70;99.90;;;;;;10474391;28;20199;-62
2024/02/02 23:10:28;;;;;;;48.20;37.17;;;9.80;99.90;;;;;;10475733;28;20258;-62
2024/02/02 23:15:31;;;;;;;48.03;37.23;;;9.80;99.90;;;;;;10467732;28;20653;-61
2024/02/02 23:20:37;;;;;;;50.20;38.57;;;9.80;99.90;;;;;;10468801;28;20223;-62
2024/02/02 23:25:53;;;;;;;52.90;39.10;;;9.80;99.90;;;;;;10474342;28;20264;-60
2024/02/02 23:30:57;;;;;;;49.40;37.67;;;9.80;99.90;;;;;;10471195;28;20268;-61
2024/02/02 23:36:02;;;;;;;46.40;36.67;;;9.80;99.90;;;;;;10475143;28;20267;-61
2024/02/02 23:41:06;;;;;;;48.53;37.27;;;9.80;99.90;;;;;;10482358;28;20211;-62
2024/02/02 23:46:09;;;;;;;42.27;33.90;;;9.80;99.90;;;;;;10480179;28;20212;-62
2024/02/02 23:51:15;;;;;;;40.13;31.63;;;9.80;99.90;;;;;;10482289;28;20607;-62
2024/02/02 23:56:18;;;;;;;42.53;33.80;;;9.80;99.90;;;;;;10484067;28;20304;-63
